TVS32R LGIR-LKPR
Flight info
| Callsign | TVS32R |
|---|---|
| Flight time | 2h 46m |
| Altitude | 36000 |
| Route | EPALO UM749 ATV DCT TALAS DCT LONTA UM749 UDVAR DCT TONDO DCT BEGLA DCT NAVTI DCT BODAL DCT VLM |
| Aircraft | B738/M-SDFGHIJ1LORVWXYZ/LB1 |
Departure
| Time | 2026-05-01 12:01 |
|---|---|
| Airport | Heraklion International Nikos Kazantzakis Airport (LGIR) |
Arrival
| Time | 2026-05-01 14:48 |
|---|---|
| Airport | Václav Havel Airport Prague (LKPR) |
| Time | Latitude | Longitude | Altitude | Speed | Heading |
|---|---|---|---|---|---|
| 2026-05-01 11:11 | 35.33873 | 25.17429 | 90 ft | 0 kts | 316° |
| 2026-05-01 11:55 | 35.33879 | 25.17422 | 90 ft | 3 kts | 317° |
| 2026-05-01 11:55 | 35.33912 | 25.17427 | 92 ft | 6 kts | 51° |
| 2026-05-01 11:55 | 35.33913 | 25.17481 | 90 ft | 6 kts | 95° |
| 2026-05-01 11:55 | 35.33910 | 25.17535 | 90 ft | 7 kts | 94° |
| 2026-05-01 11:56 | 35.33905 | 25.17599 | 91 ft | 8 kts | 95° |
| 2026-05-01 11:56 | 35.33900 | 25.17675 | 91 ft | 9 kts | 95° |
| 2026-05-01 11:56 | 35.33895 | 25.17750 | 91 ft | 9 kts | 95° |
| 2026-05-01 11:56 | 35.33889 | 25.17823 | 93 ft | 8 kts | 95° |
| 2026-05-01 11:57 | 35.33885 | 25.17894 | 91 ft | 8 kts | 95° |
| 2026-05-01 11:57 | 35.33879 | 25.17973 | 93 ft | 11 kts | 95° |
| 2026-05-01 11:57 | 35.33873 | 25.18070 | 91 ft | 12 kts | 94° |
| 2026-05-01 11:57 | 35.33866 | 25.18169 | 92 ft | 12 kts | 95° |
| 2026-05-01 11:58 | 35.33859 | 25.18266 | 92 ft | 11 kts | 95° |
| 2026-05-01 11:58 | 35.33852 | 25.18366 | 92 ft | 12 kts | 95° |
| 2026-05-01 11:58 | 35.33838 | 25.18567 | 92 ft | 12 kts | 95° |
| 2026-05-01 11:59 | 35.33832 | 25.18663 | 89 ft | 11 kts | 95° |
| 2026-05-01 11:59 | 35.33825 | 25.18757 | 91 ft | 11 kts | 95° |
| 2026-05-01 11:59 | 35.33818 | 25.18848 | 89 ft | 11 kts | 94° |
| 2026-05-01 12:00 | 35.33863 | 25.19007 | 88 ft | 10 kts | 56° |
| 2026-05-01 12:00 | 35.33901 | 25.19064 | 88 ft | 8 kts | 353° |
| 2026-05-01 12:00 | 35.33909 | 25.18991 | 89 ft | 10 kts | 275° |
| 2026-05-01 12:01 | 35.33935 | 25.18604 | 88 ft | 83 kts | 275° |
| 2026-05-01 12:01 | 35.34003 | 25.17612 | 91 ft | 148 kts | 274° |
| 2026-05-01 12:01 | 35.34116 | 25.16235 | 528 ft | 166 kts | 281° |
| 2026-05-01 12:01 | 35.34416 | 25.14843 | 1224 ft | 174 kts | 307° |
| 2026-05-01 12:02 | 35.35465 | 25.13968 | 1564 ft | 199 kts | 344° |
| 2026-05-01 12:02 | 35.36889 | 25.13495 | 1881 ft | 220 kts | 345° |
| 2026-05-01 12:02 | 35.38395 | 25.12999 | 2454 ft | 233 kts | 345° |
| 2026-05-01 12:02 | 35.40031 | 25.12459 | 2994 ft | 253 kts | 345° |
| 2026-05-01 12:03 | 35.41749 | 25.11881 | 3887 ft | 258 kts | 343° |
| 2026-05-01 12:03 | 35.43506 | 25.11274 | 4695 ft | 264 kts | 341° |
| 2026-05-01 12:03 | 35.45282 | 25.10646 | 5527 ft | 269 kts | 341° |
| 2026-05-01 12:03 | 35.47064 | 25.10006 | 6361 ft | 270 kts | 339° |
| 2026-05-01 12:04 | 35.48896 | 25.09345 | 7197 ft | 273 kts | 339° |
| 2026-05-01 12:04 | 35.50695 | 25.08691 | 8030 ft | 274 kts | 339° |
| 2026-05-01 12:04 | 35.52530 | 25.08021 | 8855 ft | 277 kts | 339° |
| 2026-05-01 12:04 | 35.54382 | 25.07342 | 9703 ft | 279 kts | 338° |
| 2026-05-01 12:05 | 35.56259 | 25.06654 | 10461 ft | 286 kts | 338° |
| 2026-05-01 12:05 | 35.60387 | 25.05122 | 10859 ft | 333 kts | 339° |
| 2026-05-01 12:05 | 35.62658 | 25.04287 | 11255 ft | 346 kts | 339° |
| 2026-05-01 12:06 | 35.64982 | 25.03437 | 11905 ft | 350 kts | 339° |
| 2026-05-01 12:06 | 35.67327 | 25.02576 | 12669 ft | 352 kts | 338° |
| 2026-05-01 12:06 | 35.69684 | 25.01708 | 13409 ft | 355 kts | 338° |
| 2026-05-01 12:06 | 35.72060 | 25.00819 | 14061 ft | 359 kts | 337° |
| 2026-05-01 12:07 | 35.74424 | 24.99775 | 14686 ft | 361 kts | 334° |
| 2026-05-01 12:07 | 35.76771 | 24.98660 | 15369 ft | 363 kts | 333° |
| 2026-05-01 12:07 | 35.79128 | 24.97525 | 16010 ft | 366 kts | 333° |
| 2026-05-01 12:07 | 35.81509 | 24.96382 | 16628 ft | 369 kts | 333° |
| 2026-05-01 12:08 | 35.83913 | 24.95234 | 17247 ft | 372 kts | 333° |
| 2026-05-01 12:08 | 35.86340 | 24.94084 | 17866 ft | 375 kts | 333° |
| 2026-05-01 12:08 | 35.88791 | 24.92927 | 18455 ft | 379 kts | 333° |
| 2026-05-01 12:08 | 35.91258 | 24.91765 | 18992 ft | 381 kts | 333° |
| 2026-05-01 12:09 | 35.93741 | 24.90596 | 19575 ft | 382 kts | 332° |
| 2026-05-01 12:09 | 35.96225 | 24.89426 | 20151 ft | 383 kts | 332° |
| 2026-05-01 12:09 | 35.98718 | 24.88250 | 20695 ft | 385 kts | 332° |
| 2026-05-01 12:09 | 36.01229 | 24.87064 | 21212 ft | 387 kts | 332° |
| 2026-05-01 12:10 | 36.03747 | 24.85875 | 21740 ft | 389 kts | 332° |
| 2026-05-01 12:10 | 36.08789 | 24.83489 | 22763 ft | 392 kts | 331° |
| 2026-05-01 12:10 | 36.11379 | 24.82260 | 23256 ft | 394 kts | 331° |
| 2026-05-01 12:11 | 36.16526 | 24.79814 | 24107 ft | 398 kts | 330° |
| 2026-05-01 12:11 | 36.19081 | 24.78600 | 24507 ft | 400 kts | 330° |
| 2026-05-01 12:11 | 36.20541 | 24.77905 | 24729 ft | 400 kts | 330° |
| 2026-05-01 12:12 | 36.23148 | 24.76665 | 25147 ft | 402 kts | 330° |
| 2026-05-01 12:12 | 36.25763 | 24.75419 | 25530 ft | 403 kts | 330° |
| 2026-05-01 12:12 | 36.28384 | 24.74170 | 25903 ft | 405 kts | 330° |
| 2026-05-01 12:12 | 36.31020 | 24.72913 | 26267 ft | 406 kts | 330° |
| 2026-05-01 12:13 | 36.33663 | 24.71652 | 26625 ft | 408 kts | 330° |
| 2026-05-01 12:13 | 36.36316 | 24.70385 | 26973 ft | 409 kts | 330° |
| 2026-05-01 12:13 | 36.38980 | 24.69112 | 27315 ft | 411 kts | 330° |
| 2026-05-01 12:13 | 36.41651 | 24.67835 | 27655 ft | 412 kts | 330° |
| 2026-05-01 12:14 | 36.44333 | 24.66551 | 27983 ft | 414 kts | 330° |
| 2026-05-01 12:14 | 36.47028 | 24.65260 | 28302 ft | 416 kts | 330° |
| 2026-05-01 12:14 | 36.49725 | 24.63968 | 28694 ft | 416 kts | 330° |
| 2026-05-01 12:14 | 36.52429 | 24.62671 | 29059 ft | 416 kts | 330° |
| 2026-05-01 12:15 | 36.55126 | 24.61378 | 29504 ft | 414 kts | 329° |
| 2026-05-01 12:15 | 36.57802 | 24.60095 | 30027 ft | 411 kts | 329° |
| 2026-05-01 12:15 | 36.60460 | 24.58819 | 30465 ft | 408 kts | 329° |
| 2026-05-01 12:15 | 36.63105 | 24.57545 | 30791 ft | 407 kts | 329° |
| 2026-05-01 12:16 | 36.65750 | 24.56269 | 31076 ft | 408 kts | 329° |
| 2026-05-01 12:16 | 36.68392 | 24.54994 | 31403 ft | 407 kts | 329° |
| 2026-05-01 12:16 | 36.71026 | 24.53722 | 31738 ft | 405 kts | 329° |
| 2026-05-01 12:16 | 36.73656 | 24.52462 | 32091 ft | 404 kts | 329° |
| 2026-05-01 12:17 | 36.76221 | 24.51083 | 32351 ft | 399 kts | 324° |
| 2026-05-01 12:17 | 36.78704 | 24.49547 | 32665 ft | 398 kts | 324° |
| 2026-05-01 12:17 | 36.81176 | 24.48010 | 33020 ft | 396 kts | 324° |
| 2026-05-01 12:17 | 36.83636 | 24.46478 | 33362 ft | 395 kts | 324° |
| 2026-05-01 12:18 | 36.86096 | 24.44949 | 33651 ft | 394 kts | 324° |
| 2026-05-01 12:18 | 36.88549 | 24.43425 | 33913 ft | 394 kts | 324° |
| 2026-05-01 12:18 | 36.90179 | 24.42413 | 34083 ft | 394 kts | 324° |
| 2026-05-01 12:18 | 36.92632 | 24.40892 | 34343 ft | 393 kts | 324° |
| 2026-05-01 12:19 | 36.95084 | 24.39372 | 34580 ft | 393 kts | 324° |
| 2026-05-01 12:19 | 36.97535 | 24.37853 | 34791 ft | 394 kts | 323° |
| 2026-05-01 12:19 | 36.99990 | 24.36331 | 34990 ft | 395 kts | 323° |
| 2026-05-01 12:19 | 37.02458 | 24.34797 | 35144 ft | 396 kts | 323° |
| 2026-05-01 12:20 | 37.04929 | 24.33261 | 35367 ft | 396 kts | 323° |
| 2026-05-01 12:20 | 37.07392 | 24.31729 | 35637 ft | 395 kts | 323° |
| 2026-05-01 12:20 | 37.09848 | 24.30202 | 35864 ft | 394 kts | 323° |
| 2026-05-01 12:20 | 37.12306 | 24.28671 | 36058 ft | 395 kts | 323° |
| 2026-05-01 12:21 | 37.17252 | 24.25583 | 36102 ft | 398 kts | 323° |
| 2026-05-01 12:21 | 37.22186 | 24.22508 | 36096 ft | 394 kts | 323° |
| 2026-05-01 12:22 | 37.27078 | 24.19453 | 36109 ft | 392 kts | 323° |
| 2026-05-01 12:22 | 37.31944 | 24.16405 | 36109 ft | 390 kts | 323° |
| 2026-05-01 12:23 | 37.36787 | 24.13367 | 36113 ft | 389 kts | 323° |
| 2026-05-01 12:23 | 37.41631 | 24.10323 | 36118 ft | 389 kts | 323° |
| 2026-05-01 12:24 | 37.46474 | 24.07275 | 36122 ft | 390 kts | 323° |
| 2026-05-01 12:24 | 37.51336 | 24.04212 | 36132 ft | 392 kts | 323° |
| 2026-05-01 12:25 | 37.58685 | 23.99574 | 36129 ft | 395 kts | 323° |
| 2026-05-01 12:26 | 37.63581 | 23.96479 | 36138 ft | 397 kts | 323° |
| 2026-05-01 12:26 | 37.69924 | 23.92463 | 36150 ft | 399 kts | 323° |
| 2026-05-01 12:27 | 37.77391 | 23.87726 | 36145 ft | 401 kts | 323° |
| 2026-05-01 12:28 | 37.84874 | 23.82967 | 36153 ft | 401 kts | 323° |
| 2026-05-01 12:29 | 37.92381 | 23.78326 | 36143 ft | 401 kts | 325° |
| 2026-05-01 12:29 | 38.00040 | 23.74070 | 36188 ft | 399 kts | 326° |
| 2026-05-01 12:30 | 38.07649 | 23.69815 | 36150 ft | 397 kts | 326° |
| 2026-05-01 12:31 | 38.12682 | 23.66970 | 36166 ft | 395 kts | 326° |
| 2026-05-01 12:31 | 38.17728 | 23.64168 | 36162 ft | 395 kts | 326° |
| 2026-05-01 12:32 | 38.22731 | 23.61299 | 36161 ft | 395 kts | 325° |
| 2026-05-01 12:32 | 38.30254 | 23.56978 | 36177 ft | 397 kts | 325° |
| 2026-05-01 12:33 | 38.35305 | 23.54097 | 36176 ft | 399 kts | 326° |
| 2026-05-01 12:33 | 38.40385 | 23.51188 | 36171 ft | 401 kts | 326° |
| 2026-05-01 12:34 | 38.45489 | 23.48266 | 36177 ft | 403 kts | 326° |
| 2026-05-01 12:34 | 38.50616 | 23.45328 | 36179 ft | 405 kts | 326° |
| 2026-05-01 12:35 | 38.55764 | 23.42375 | 36182 ft | 406 kts | 326° |
| 2026-05-01 12:35 | 38.60916 | 23.39414 | 36182 ft | 407 kts | 326° |
| 2026-05-01 12:36 | 38.66064 | 23.36452 | 36164 ft | 406 kts | 326° |
| 2026-05-01 12:36 | 38.71195 | 23.33494 | 36181 ft | 404 kts | 326° |
| 2026-05-01 12:37 | 38.76313 | 23.30538 | 36193 ft | 403 kts | 326° |
| 2026-05-01 12:37 | 38.81404 | 23.27593 | 36202 ft | 401 kts | 326° |
| 2026-05-01 12:38 | 38.86494 | 23.24643 | 36190 ft | 401 kts | 326° |
| 2026-05-01 12:38 | 38.91581 | 23.21689 | 36206 ft | 401 kts | 326° |
| 2026-05-01 12:39 | 38.96663 | 23.18733 | 36200 ft | 401 kts | 326° |
| 2026-05-01 12:39 | 39.01758 | 23.15764 | 36205 ft | 403 kts | 327° |
| 2026-05-01 12:40 | 39.06834 | 23.12804 | 36215 ft | 404 kts | 327° |
| 2026-05-01 12:40 | 39.11952 | 23.09813 | 36234 ft | 405 kts | 327° |
| 2026-05-01 12:41 | 39.17090 | 23.06808 | 36231 ft | 406 kts | 327° |
| 2026-05-01 12:41 | 39.21231 | 23.04381 | 36255 ft | 407 kts | 327° |
| 2026-05-01 12:42 | 39.26402 | 23.01347 | 36236 ft | 409 kts | 327° |
| 2026-05-01 12:42 | 39.31582 | 22.98304 | 36238 ft | 410 kts | 327° |
| 2026-05-01 12:43 | 39.36778 | 22.95244 | 36232 ft | 411 kts | 327° |
| 2026-05-01 12:43 | 39.41980 | 22.92175 | 36210 ft | 411 kts | 327° |
| 2026-05-01 12:44 | 39.47185 | 22.89101 | 36221 ft | 412 kts | 327° |
| 2026-05-01 12:45 | 39.57632 | 22.82917 | 36210 ft | 414 kts | 327° |
| 2026-05-01 12:45 | 39.62872 | 22.79806 | 36202 ft | 414 kts | 327° |
| 2026-05-01 12:46 | 39.68113 | 22.76692 | 36209 ft | 415 kts | 328° |
| 2026-05-01 12:46 | 39.73359 | 22.73565 | 36221 ft | 415 kts | 328° |
| 2026-05-01 12:47 | 39.78620 | 22.70425 | 36213 ft | 416 kts | 328° |
| 2026-05-01 12:47 | 39.83848 | 22.67301 | 36226 ft | 417 kts | 328° |
| 2026-05-01 12:48 | 39.89123 | 22.64143 | 36220 ft | 417 kts | 328° |
| 2026-05-01 12:48 | 39.94395 | 22.60982 | 36228 ft | 417 kts | 328° |
| 2026-05-01 12:49 | 39.99661 | 22.57821 | 36224 ft | 416 kts | 328° |
| 2026-05-01 12:49 | 40.04925 | 22.54653 | 36216 ft | 417 kts | 328° |
| 2026-05-01 12:50 | 40.10193 | 22.51478 | 36221 ft | 417 kts | 328° |
| 2026-05-01 12:50 | 40.15462 | 22.48297 | 36223 ft | 417 kts | 328° |
| 2026-05-01 12:51 | 40.20739 | 22.45105 | 36229 ft | 418 kts | 329° |
| 2026-05-01 12:52 | 40.28676 | 22.40293 | 36225 ft | 420 kts | 329° |
| 2026-05-01 12:52 | 40.36652 | 22.35448 | 36215 ft | 422 kts | 329° |
| 2026-05-01 12:53 | 40.44642 | 22.30584 | 36211 ft | 422 kts | 329° |
| 2026-05-01 12:54 | 40.49979 | 22.27327 | 36227 ft | 423 kts | 329° |
| 2026-05-01 12:54 | 40.57999 | 22.22415 | 36215 ft | 424 kts | 329° |
| 2026-05-01 12:55 | 40.66040 | 22.17480 | 36208 ft | 425 kts | 329° |
| 2026-05-01 12:56 | 40.71367 | 22.14204 | 36201 ft | 425 kts | 329° |
| 2026-05-01 12:56 | 40.76727 | 22.10903 | 36200 ft | 425 kts | 330° |
| 2026-05-01 12:57 | 40.81099 | 22.08204 | 36207 ft | 425 kts | 330° |
| 2026-05-01 12:57 | 40.89122 | 22.03242 | 36205 ft | 424 kts | 330° |
| 2026-05-01 12:58 | 40.94462 | 21.99933 | 36202 ft | 424 kts | 330° |
| 2026-05-01 12:59 | 41.02470 | 21.94957 | 36201 ft | 424 kts | 330° |
| 2026-05-01 12:59 | 41.10561 | 21.90174 | 36236 ft | 426 kts | 335° |
| 2026-05-01 13:00 | 41.19008 | 21.86262 | 36203 ft | 430 kts | 336° |
| 2026-05-01 13:01 | 41.27484 | 21.82325 | 36197 ft | 430 kts | 336° |
| 2026-05-01 13:02 | 41.35940 | 21.78362 | 36212 ft | 430 kts | 336° |
| 2026-05-01 13:07 | 41.96806 | 21.49014 | 36229 ft | 432 kts | 337° |
| 2026-05-01 13:08 | 42.02460 | 21.46263 | 36238 ft | 433 kts | 337° |
| 2026-05-01 13:08 | 42.08126 | 21.43500 | 36242 ft | 433 kts | 337° |
| 2026-05-01 13:09 | 42.13796 | 21.40730 | 36227 ft | 434 kts | 337° |
| 2026-05-01 13:09 | 42.19537 | 21.38249 | 36255 ft | 434 kts | 342° |
| 2026-05-01 13:10 | 42.25383 | 21.36142 | 36240 ft | 435 kts | 343° |
| 2026-05-01 13:10 | 42.31238 | 21.34049 | 36241 ft | 435 kts | 342° |
| 2026-05-01 13:11 | 42.37079 | 21.31921 | 36252 ft | 434 kts | 342° |
| 2026-05-01 13:11 | 42.42911 | 21.29772 | 36258 ft | 434 kts | 342° |
| 2026-05-01 13:12 | 42.47536 | 21.28061 | 36260 ft | 433 kts | 343° |
| 2026-05-01 13:12 | 42.53345 | 21.25908 | 36257 ft | 433 kts | 343° |
| 2026-05-01 13:13 | 42.59152 | 21.23754 | 36261 ft | 433 kts | 342° |
| 2026-05-01 13:13 | 42.64956 | 21.21596 | 36264 ft | 432 kts | 343° |
| 2026-05-01 13:14 | 42.70749 | 21.19438 | 36263 ft | 431 kts | 343° |
| 2026-05-01 13:14 | 42.76531 | 21.17278 | 36253 ft | 431 kts | 343° |
| 2026-05-01 13:15 | 42.82312 | 21.15117 | 36256 ft | 430 kts | 342° |
| 2026-05-01 13:15 | 42.88080 | 21.12956 | 36249 ft | 430 kts | 343° |
| 2026-05-01 13:16 | 42.93844 | 21.10794 | 36255 ft | 429 kts | 343° |
| 2026-05-01 13:16 | 42.99596 | 21.08629 | 36252 ft | 429 kts | 343° |
| 2026-05-01 13:17 | 43.11083 | 21.04295 | 36269 ft | 427 kts | 343° |
| 2026-05-01 13:18 | 43.19374 | 21.00021 | 36279 ft | 426 kts | 337° |
| 2026-05-01 13:18 | 43.24861 | 20.96926 | 36282 ft | 427 kts | 338° |
| 2026-05-01 13:19 | 43.30364 | 20.93865 | 36276 ft | 427 kts | 338° |
| 2026-05-01 13:20 | 43.38642 | 20.89304 | 36271 ft | 427 kts | 338° |
| 2026-05-01 13:20 | 43.44154 | 20.86271 | 36275 ft | 427 kts | 338° |
| 2026-05-01 13:21 | 43.52423 | 20.81710 | 36279 ft | 427 kts | 339° |
| 2026-05-01 13:21 | 43.57942 | 20.78659 | 36267 ft | 428 kts | 339° |
| 2026-05-01 13:22 | 43.63470 | 20.75594 | 36277 ft | 429 kts | 339° |
| 2026-05-01 13:22 | 43.69006 | 20.72521 | 36290 ft | 429 kts | 339° |
| 2026-05-01 13:23 | 43.74551 | 20.69435 | 36283 ft | 430 kts | 339° |
| 2026-05-01 13:23 | 43.80102 | 20.66341 | 36289 ft | 430 kts | 339° |
| 2026-05-01 13:24 | 43.85645 | 20.63243 | 36283 ft | 430 kts | 339° |
| 2026-05-01 13:25 | 43.93955 | 20.58589 | 36289 ft | 429 kts | 340° |
| 2026-05-01 13:25 | 43.99483 | 20.55485 | 36285 ft | 428 kts | 339° |
| 2026-05-01 13:26 | 44.05002 | 20.52381 | 36292 ft | 428 kts | 339° |
| 2026-05-01 13:26 | 44.10522 | 20.49269 | 36298 ft | 428 kts | 340° |
| 2026-05-01 13:27 | 44.14802 | 20.46852 | 36300 ft | 428 kts | 340° |
| 2026-05-01 13:27 | 44.23099 | 20.42157 | 36294 ft | 427 kts | 340° |
| 2026-05-01 13:28 | 44.31306 | 20.37494 | 36307 ft | 426 kts | 340° |
| 2026-05-01 13:29 | 44.42258 | 20.31256 | 36301 ft | 425 kts | 340° |
| 2026-05-01 13:31 | 44.58611 | 20.21890 | 36318 ft | 422 kts | 341° |
| 2026-05-01 13:32 | 44.72192 | 20.14070 | 36319 ft | 421 kts | 341° |
| 2026-05-01 13:33 | 44.85724 | 20.06236 | 36318 ft | 420 kts | 341° |
| 2026-05-01 13:34 | 44.96525 | 19.99958 | 36319 ft | 420 kts | 341° |
| 2026-05-01 13:35 | 45.04586 | 19.95254 | 36311 ft | 419 kts | 341° |
| 2026-05-01 13:36 | 45.12710 | 19.90499 | 36304 ft | 419 kts | 342° |
| 2026-05-01 13:36 | 45.20788 | 19.85756 | 36312 ft | 419 kts | 342° |
| 2026-05-01 13:37 | 45.26179 | 19.82582 | 36307 ft | 419 kts | 342° |
| 2026-05-01 13:37 | 45.31533 | 19.79424 | 36310 ft | 419 kts | 342° |
| 2026-05-01 13:38 | 45.39648 | 19.74624 | 36302 ft | 419 kts | 342° |
| 2026-05-01 13:39 | 45.44990 | 19.71457 | 36309 ft | 418 kts | 343° |
| 2026-05-01 13:39 | 45.50357 | 19.68268 | 36313 ft | 418 kts | 343° |
| 2026-05-01 13:40 | 45.55723 | 19.65073 | 36316 ft | 417 kts | 343° |
| 2026-05-01 13:40 | 45.61079 | 19.61878 | 36314 ft | 417 kts | 343° |
| 2026-05-01 13:41 | 45.66427 | 19.58675 | 36310 ft | 416 kts | 343° |
| 2026-05-01 13:41 | 45.71690 | 19.55523 | 36332 ft | 416 kts | 344° |
| 2026-05-01 13:42 | 45.76050 | 19.52909 | 36317 ft | 415 kts | 344° |
| 2026-05-01 13:42 | 45.81370 | 19.49710 | 36317 ft | 414 kts | 344° |
| 2026-05-01 13:43 | 45.86685 | 19.46507 | 36321 ft | 414 kts | 344° |
| 2026-05-01 13:43 | 45.91993 | 19.43301 | 36323 ft | 413 kts | 344° |
| 2026-05-01 13:44 | 45.97290 | 19.40096 | 36322 ft | 413 kts | 344° |
| 2026-05-01 13:44 | 46.02572 | 19.36891 | 36282 ft | 412 kts | 343° |
| 2026-05-01 13:45 | 46.07495 | 19.32430 | 36324 ft | 427 kts | 328° |
| 2026-05-01 13:45 | 46.12032 | 19.26904 | 36326 ft | 427 kts | 328° |
| 2026-05-01 13:46 | 46.16555 | 19.21361 | 36322 ft | 426 kts | 328° |
| 2026-05-01 13:46 | 46.21087 | 19.15845 | 36329 ft | 426 kts | 328° |
| 2026-05-01 13:47 | 46.25619 | 19.10345 | 36301 ft | 425 kts | 328° |
| 2026-05-01 13:47 | 46.30144 | 19.04848 | 36320 ft | 425 kts | 328° |
| 2026-05-01 13:48 | 46.34666 | 18.99344 | 36332 ft | 424 kts | 328° |
| 2026-05-01 13:48 | 46.39180 | 18.93836 | 36336 ft | 425 kts | 328° |
| 2026-05-01 13:49 | 46.43700 | 18.88309 | 36326 ft | 425 kts | 328° |
| 2026-05-01 13:49 | 46.48184 | 18.82812 | 36309 ft | 425 kts | 328° |
| 2026-05-01 13:50 | 46.52692 | 18.77273 | 36329 ft | 425 kts | 328° |
| 2026-05-01 13:50 | 46.57199 | 18.71724 | 36349 ft | 425 kts | 328° |
| 2026-05-01 13:51 | 46.61707 | 18.66161 | 36343 ft | 425 kts | 328° |
| 2026-05-01 13:51 | 46.66213 | 18.60588 | 36350 ft | 425 kts | 328° |
| 2026-05-01 13:52 | 46.70719 | 18.55003 | 36305 ft | 425 kts | 327° |
| 2026-05-01 13:52 | 46.75208 | 18.49419 | 36337 ft | 424 kts | 327° |
| 2026-05-01 13:53 | 46.78930 | 18.44785 | 36342 ft | 423 kts | 327° |
| 2026-05-01 13:53 | 46.85642 | 18.36407 | 36344 ft | 423 kts | 327° |
| 2026-05-01 13:54 | 46.90113 | 18.30811 | 36346 ft | 423 kts | 327° |
| 2026-05-01 13:54 | 46.94574 | 18.25213 | 36336 ft | 421 kts | 327° |
| 2026-05-01 13:55 | 46.99020 | 18.19621 | 36339 ft | 421 kts | 327° |
| 2026-05-01 13:55 | 47.03467 | 18.14017 | 36343 ft | 421 kts | 327° |
| 2026-05-01 13:56 | 47.07904 | 18.08410 | 36346 ft | 421 kts | 327° |
| 2026-05-01 13:56 | 47.11264 | 18.04155 | 36348 ft | 421 kts | 327° |
| 2026-05-01 13:57 | 47.15701 | 17.98527 | 36326 ft | 421 kts | 326° |
| 2026-05-01 13:57 | 47.20129 | 17.92896 | 36345 ft | 421 kts | 326° |
| 2026-05-01 13:58 | 47.24558 | 17.87254 | 36340 ft | 421 kts | 326° |
| 2026-05-01 13:58 | 47.28981 | 17.81606 | 36350 ft | 421 kts | 326° |
| 2026-05-01 13:59 | 47.33404 | 17.75943 | 36349 ft | 421 kts | 326° |
| 2026-05-01 13:59 | 47.37791 | 17.70314 | 36316 ft | 421 kts | 326° |
| 2026-05-01 14:00 | 47.42198 | 17.64644 | 36341 ft | 420 kts | 326° |
| 2026-05-01 14:00 | 47.46599 | 17.58970 | 36353 ft | 420 kts | 326° |
| 2026-05-01 14:01 | 47.51000 | 17.53285 | 36347 ft | 420 kts | 326° |
| 2026-05-01 14:01 | 47.55397 | 17.47592 | 36351 ft | 420 kts | 326° |
| 2026-05-01 14:02 | 47.59793 | 17.41884 | 36343 ft | 420 kts | 326° |
| 2026-05-01 14:02 | 47.64182 | 17.36172 | 36343 ft | 420 kts | 326° |
| 2026-05-01 14:03 | 47.68576 | 17.30443 | 36357 ft | 420 kts | 326° |
| 2026-05-01 14:03 | 47.72968 | 17.24700 | 36355 ft | 421 kts | 325° |
| 2026-05-01 14:04 | 47.77365 | 17.18938 | 36360 ft | 422 kts | 325° |
| 2026-05-01 14:04 | 47.81760 | 17.13168 | 36351 ft | 422 kts | 325° |
| 2026-05-01 14:05 | 47.86420 | 17.08027 | 36354 ft | 414 kts | 334° |
| 2026-05-01 14:05 | 47.91301 | 17.03488 | 36344 ft | 413 kts | 334° |
| 2026-05-01 14:06 | 47.96177 | 16.98947 | 36340 ft | 414 kts | 334° |
| 2026-05-01 14:06 | 48.01037 | 16.94345 | 36336 ft | 414 kts | 334° |
| 2026-05-01 14:07 | 48.05892 | 16.89712 | 36329 ft | 414 kts | 334° |
| 2026-05-01 14:08 | 48.13163 | 16.82740 | 36349 ft | 413 kts | 333° |
| 2026-05-01 14:08 | 48.18004 | 16.78085 | 36345 ft | 414 kts | 333° |
| 2026-05-01 14:09 | 48.22840 | 16.73425 | 36344 ft | 413 kts | 333° |
| 2026-05-01 14:09 | 48.27670 | 16.68761 | 36346 ft | 413 kts | 333° |
| 2026-05-01 14:10 | 48.32490 | 16.64096 | 36330 ft | 413 kts | 333° |
| 2026-05-01 14:10 | 48.34906 | 16.61756 | 36222 ft | 414 kts | 333° |
| 2026-05-01 14:10 | 48.37319 | 16.59413 | 35934 ft | 409 kts | 333° |
| 2026-05-01 14:10 | 48.39693 | 16.57100 | 35507 ft | 405 kts | 333° |
| 2026-05-01 14:11 | 48.42039 | 16.54815 | 35175 ft | 399 kts | 333° |
| 2026-05-01 14:11 | 48.46670 | 16.50298 | 34413 ft | 393 kts | 334° |
| 2026-05-01 14:11 | 48.47795 | 16.49200 | 34213 ft | 392 kts | 334° |
| 2026-05-01 14:12 | 48.50073 | 16.46975 | 33788 ft | 388 kts | 334° |
| 2026-05-01 14:12 | 48.52324 | 16.44775 | 33422 ft | 384 kts | 334° |
| 2026-05-01 14:12 | 48.54562 | 16.42587 | 33029 ft | 381 kts | 334° |
| 2026-05-01 14:12 | 48.56770 | 16.40423 | 32686 ft | 377 kts | 334° |
| 2026-05-01 14:13 | 48.58959 | 16.38276 | 32321 ft | 373 kts | 334° |
| 2026-05-01 14:13 | 48.60428 | 16.36834 | 32078 ft | 371 kts | 334° |
| 2026-05-01 14:13 | 48.63281 | 16.34032 | 31600 ft | 367 kts | 334° |
| 2026-05-01 14:13 | 48.65413 | 16.31935 | 31253 ft | 365 kts | 334° |
| 2026-05-01 14:14 | 48.67533 | 16.29848 | 30900 ft | 362 kts | 334° |
| 2026-05-01 14:14 | 48.69639 | 16.27773 | 30543 ft | 360 kts | 334° |
| 2026-05-01 14:14 | 48.71732 | 16.25709 | 30175 ft | 357 kts | 334° |
| 2026-05-01 14:14 | 48.73802 | 16.23663 | 29824 ft | 353 kts | 334° |
| 2026-05-01 14:15 | 48.75849 | 16.21639 | 29465 ft | 349 kts | 334° |
| 2026-05-01 14:15 | 48.77937 | 16.19864 | 29113 ft | 339 kts | 343° |
| 2026-05-01 14:15 | 48.80098 | 16.18540 | 28794 ft | 333 kts | 345° |
| 2026-05-01 14:15 | 48.82249 | 16.17268 | 28437 ft | 330 kts | 345° |
| 2026-05-01 14:16 | 48.84383 | 16.16011 | 28074 ft | 329 kts | 345° |
| 2026-05-01 14:16 | 48.86508 | 16.14755 | 27747 ft | 327 kts | 345° |
| 2026-05-01 14:16 | 48.88631 | 16.13493 | 27406 ft | 329 kts | 345° |
| 2026-05-01 14:16 | 48.90800 | 16.12204 | 27089 ft | 341 kts | 345° |
| 2026-05-01 14:17 | 48.93035 | 16.10870 | 26713 ft | 346 kts | 345° |
| 2026-05-01 14:17 | 48.95274 | 16.09523 | 26348 ft | 345 kts | 344° |
| 2026-05-01 14:17 | 48.97490 | 16.08182 | 26001 ft | 342 kts | 344° |
| 2026-05-01 14:17 | 48.99692 | 16.06847 | 25650 ft | 339 kts | 345° |
| 2026-05-01 14:18 | 49.01877 | 16.05522 | 25305 ft | 337 kts | 345° |
| 2026-05-01 14:18 | 49.04046 | 16.04206 | 24938 ft | 335 kts | 344° |
| 2026-05-01 14:18 | 49.06202 | 16.02897 | 24609 ft | 332 kts | 344° |
| 2026-05-01 14:18 | 49.07623 | 16.02034 | 24396 ft | 331 kts | 344° |
| 2026-05-01 14:19 | 49.10474 | 16.00301 | 23947 ft | 329 kts | 345° |
| 2026-05-01 14:19 | 49.12595 | 15.99013 | 23563 ft | 327 kts | 345° |
| 2026-05-01 14:19 | 49.14700 | 15.97732 | 23193 ft | 325 kts | 345° |
| 2026-05-01 14:19 | 49.16790 | 15.96458 | 22871 ft | 322 kts | 344° |
| 2026-05-01 14:20 | 49.18861 | 15.95195 | 22534 ft | 319 kts | 344° |
| 2026-05-01 14:20 | 49.22954 | 15.92698 | 21884 ft | 314 kts | 344° |
| 2026-05-01 14:20 | 49.24978 | 15.91462 | 21566 ft | 312 kts | 344° |
| 2026-05-01 14:21 | 49.26984 | 15.90234 | 21241 ft | 310 kts | 344° |
| 2026-05-01 14:21 | 49.28952 | 15.89029 | 20924 ft | 308 kts | 344° |
| 2026-05-01 14:21 | 49.30934 | 15.87814 | 20616 ft | 306 kts | 344° |
| 2026-05-01 14:22 | 49.34868 | 15.85401 | 19988 ft | 303 kts | 344° |
| 2026-05-01 14:22 | 49.36818 | 15.84203 | 19682 ft | 301 kts | 344° |
| 2026-05-01 14:22 | 49.38755 | 15.83013 | 19375 ft | 300 kts | 344° |
| 2026-05-01 14:22 | 49.40718 | 15.81805 | 19062 ft | 299 kts | 344° |
| 2026-05-01 14:23 | 49.42619 | 15.80634 | 18737 ft | 298 kts | 344° |
| 2026-05-01 14:23 | 49.44542 | 15.79437 | 18396 ft | 298 kts | 341° |
| 2026-05-01 14:23 | 49.46287 | 15.77641 | 18050 ft | 308 kts | 321° |
| 2026-05-01 14:23 | 49.47607 | 15.75017 | 17744 ft | 314 kts | 306° |
| 2026-05-01 14:24 | 49.48643 | 15.72063 | 17459 ft | 313 kts | 303° |
| 2026-05-01 14:24 | 49.49629 | 15.69083 | 17146 ft | 312 kts | 302° |
| 2026-05-01 14:24 | 49.50613 | 15.66084 | 16819 ft | 316 kts | 302° |
| 2026-05-01 14:24 | 49.51609 | 15.63066 | 16523 ft | 318 kts | 302° |
| 2026-05-01 14:25 | 49.52628 | 15.60003 | 16211 ft | 324 kts | 303° |
| 2026-05-01 14:25 | 49.53664 | 15.56902 | 15897 ft | 326 kts | 303° |
| 2026-05-01 14:25 | 49.54700 | 15.53803 | 15574 ft | 325 kts | 303° |
| 2026-05-01 14:25 | 49.55733 | 15.50719 | 15247 ft | 323 kts | 303° |
| 2026-05-01 14:26 | 49.56761 | 15.47648 | 14924 ft | 322 kts | 303° |
| 2026-05-01 14:26 | 49.58699 | 15.41866 | 14315 ft | 321 kts | 302° |
| 2026-05-01 14:26 | 49.59424 | 15.39701 | 14079 ft | 320 kts | 302° |
| 2026-05-01 14:27 | 49.60440 | 15.36661 | 13750 ft | 318 kts | 302° |
| 2026-05-01 14:27 | 49.61452 | 15.33632 | 13409 ft | 317 kts | 302° |
| 2026-05-01 14:27 | 49.62455 | 15.30625 | 13078 ft | 315 kts | 302° |
| 2026-05-01 14:28 | 49.64447 | 15.24651 | 12446 ft | 311 kts | 302° |
| 2026-05-01 14:28 | 49.65430 | 15.21695 | 12144 ft | 309 kts | 302° |
| 2026-05-01 14:28 | 49.66409 | 15.18748 | 11825 ft | 308 kts | 301° |
| 2026-05-01 14:28 | 49.67380 | 15.15822 | 11525 ft | 306 kts | 301° |
| 2026-05-01 14:29 | 49.68349 | 15.12904 | 11242 ft | 304 kts | 301° |
| 2026-05-01 14:29 | 49.69307 | 15.10009 | 10925 ft | 303 kts | 301° |
| 2026-05-01 14:30 | 49.72631 | 15.01998 | 10279 ft | 286 kts | 313° |
| 2026-05-01 14:30 | 49.73888 | 14.99612 | 9969 ft | 285 kts | 313° |
| 2026-05-01 14:30 | 49.75129 | 14.97226 | 9690 ft | 284 kts | 312° |
| 2026-05-01 14:31 | 49.77562 | 14.92431 | 9128 ft | 282 kts | 311° |
| 2026-05-01 14:31 | 49.78760 | 14.90048 | 8846 ft | 279 kts | 311° |
| 2026-05-01 14:31 | 49.79947 | 14.87668 | 8558 ft | 279 kts | 311° |
| 2026-05-01 14:31 | 49.81123 | 14.85292 | 8274 ft | 278 kts | 310° |
| 2026-05-01 14:32 | 49.82292 | 14.82919 | 8012 ft | 276 kts | 310° |
| 2026-05-01 14:32 | 49.83060 | 14.81353 | 7824 ft | 276 kts | 310° |
| 2026-05-01 14:32 | 49.84612 | 14.78204 | 7451 ft | 274 kts | 311° |
| 2026-05-01 14:32 | 49.85774 | 14.75858 | 7182 ft | 275 kts | 310° |
| 2026-05-01 14:33 | 49.86930 | 14.73503 | 6906 ft | 274 kts | 310° |
| 2026-05-01 14:33 | 49.88079 | 14.71165 | 6665 ft | 271 kts | 310° |
| 2026-05-01 14:33 | 49.89209 | 14.68869 | 6536 ft | 265 kts | 310° |
| 2026-05-01 14:33 | 49.90309 | 14.66626 | 6402 ft | 258 kts | 309° |
| 2026-05-01 14:34 | 49.91376 | 14.64447 | 6296 ft | 249 kts | 309° |
| 2026-05-01 14:34 | 49.92409 | 14.62346 | 6194 ft | 241 kts | 309° |
| 2026-05-01 14:34 | 49.93411 | 14.60304 | 6069 ft | 234 kts | 309° |
| 2026-05-01 14:34 | 49.94389 | 14.58311 | 5686 ft | 240 kts | 309° |
| 2026-05-01 14:35 | 49.95406 | 14.56224 | 5340 ft | 243 kts | 309° |
| 2026-05-01 14:35 | 49.96445 | 14.54096 | 5050 ft | 244 kts | 308° |
| 2026-05-01 14:35 | 49.97457 | 14.52019 | 4769 ft | 245 kts | 308° |
| 2026-05-01 14:35 | 49.98483 | 14.49909 | 4506 ft | 244 kts | 309° |
| 2026-05-01 14:36 | 49.99507 | 14.47804 | 4244 ft | 244 kts | 308° |
| 2026-05-01 14:36 | 50.00529 | 14.45707 | 4050 ft | 242 kts | 308° |
| 2026-05-01 14:36 | 50.01529 | 14.43650 | 3982 ft | 234 kts | 308° |
| 2026-05-01 14:36 | 50.02487 | 14.41675 | 3984 ft | 224 kts | 308° |
| 2026-05-01 14:37 | 50.03435 | 14.39790 | 3709 ft | 223 kts | 308° |
| 2026-05-01 14:37 | 50.04376 | 14.37862 | 3564 ft | 217 kts | 307° |
| 2026-05-01 14:37 | 50.05390 | 14.36250 | 3682 ft | 206 kts | 332° |
| 2026-05-01 14:37 | 50.06755 | 14.35798 | 3781 ft | 207 kts | 8° |
| 2026-05-01 14:38 | 50.08062 | 14.36707 | 3921 ft | 211 kts | 43° |
| 2026-05-01 14:38 | 50.08812 | 14.38676 | 3990 ft | 219 kts | 76° |
| 2026-05-01 14:38 | 50.08747 | 14.41041 | 4010 ft | 223 kts | 104° |
| 2026-05-01 14:38 | 50.08318 | 14.42527 | 3993 ft | 225 kts | 122° |
| 2026-05-01 14:39 | 50.07097 | 14.45130 | 4021 ft | 225 kts | 124° |
| 2026-05-01 14:39 | 50.06166 | 14.47093 | 4001 ft | 226 kts | 124° |
| 2026-05-01 14:39 | 50.05231 | 14.49051 | 3990 ft | 225 kts | 125° |
| 2026-05-01 14:39 | 50.04302 | 14.51001 | 3993 ft | 224 kts | 125° |
| 2026-05-01 14:40 | 50.03677 | 14.52317 | 3993 ft | 224 kts | 124° |
| 2026-05-01 14:40 | 50.02754 | 14.54261 | 3996 ft | 223 kts | 125° |
| 2026-05-01 14:40 | 50.01836 | 14.56204 | 3997 ft | 223 kts | 125° |
| 2026-05-01 14:40 | 50.00929 | 14.58116 | 3980 ft | 221 kts | 125° |
| 2026-05-01 14:41 | 49.99942 | 14.59929 | 3976 ft | 221 kts | 143° |
| 2026-05-01 14:41 | 49.98507 | 14.60773 | 4003 ft | 228 kts | 178° |
| 2026-05-01 14:41 | 49.96974 | 14.60249 | 4010 ft | 228 kts | 209° |
| 2026-05-01 14:41 | 49.96241 | 14.59583 | 4002 ft | 228 kts | 213° |
| 2026-05-01 14:42 | 49.95026 | 14.58071 | 3988 ft | 219 kts | 236° |
| 2026-05-01 14:42 | 49.94524 | 14.55976 | 3991 ft | 203 kts | 272° |
| 2026-05-01 14:42 | 49.94912 | 14.53946 | 3980 ft | 195 kts | 309° |
| 2026-05-01 14:42 | 49.95965 | 14.52710 | 3992 ft | 191 kts | 336° |
| 2026-05-01 14:43 | 49.97133 | 14.51842 | 4004 ft | 181 kts | 334° |
| 2026-05-01 14:43 | 49.98088 | 14.50698 | 3985 ft | 172 kts | 305° |
| 2026-05-01 14:43 | 49.98785 | 14.49169 | 3998 ft | 175 kts | 310° |
| 2026-05-01 14:43 | 49.99559 | 14.47723 | 3980 ft | 174 kts | 311° |
| 2026-05-01 14:44 | 50.00307 | 14.46271 | 4008 ft | 171 kts | 310° |
| 2026-05-01 14:44 | 50.01747 | 14.43312 | 3709 ft | 163 kts | 309° |
| 2026-05-01 14:44 | 50.02405 | 14.41947 | 3475 ft | 154 kts | 309° |
| 2026-05-01 14:45 | 50.03046 | 14.40615 | 3275 ft | 152 kts | 308° |
| 2026-05-01 14:45 | 50.04325 | 14.37986 | 2788 ft | 154 kts | 309° |
| 2026-05-01 14:45 | 50.04977 | 14.36673 | 2533 ft | 153 kts | 309° |
| 2026-05-01 14:46 | 50.05605 | 14.35329 | 2378 ft | 154 kts | 307° |
| 2026-05-01 14:46 | 50.06884 | 14.32609 | 2017 ft | 157 kts | 309° |
| 2026-05-01 14:46 | 50.07549 | 14.31269 | 1822 ft | 156 kts | 310° |
| 2026-05-01 14:47 | 50.08205 | 14.29920 | 1609 ft | 155 kts | 306° |
| 2026-05-01 14:47 | 50.08847 | 14.28574 | 1358 ft | 155 kts | 307° |
| 2026-05-01 14:47 | 50.09489 | 14.27251 | 1205 ft | 146 kts | 306° |
| 2026-05-01 14:48 | 50.10195 | 14.25793 | 1184 ft | 34 kts | 309° |
| 2026-05-01 14:48 | 50.10340 | 14.25665 | 1182 ft | 25 kts | 347° |
| 2026-05-01 14:48 | 50.10453 | 14.25668 | 1181 ft | 0 kts | 15° |
| 2026-05-01 14:49 | 50.10470 | 14.25675 | 1180 ft | 6 kts | 15° |
| 2026-05-01 14:49 | 50.10588 | 14.25754 | 1175 ft | 11 kts | 346° |
| 2026-05-01 14:50 | 50.10658 | 14.25617 | 1171 ft | 10 kts | 340° |
| 2026-05-01 14:50 | 50.10798 | 14.25737 | 1165 ft | 8 kts | 34° |
| 2026-05-01 14:51 | 50.10838 | 14.25747 | 1164 ft | 7 kts | 315° |
| 2026-05-01 14:51 | 50.10864 | 14.25684 | 1162 ft | 0 kts | 304° |